Princesa Isabel, Brazil
Current Conditions -  °F | °C
As of 7:00 PM on Saturday 25 Oct 2014 (Local Time) from SBJU Reporting Station
Scattered Clouds Scattered Clouds  
Wind Chill: 91°   Ceiling: Unl
Heat Index: 91°   Visibility: 6mi
Dew Point: 57°   Wind: 3mph
Humidity: 31%   Direction: 50°NE
Pressure: 29.91"   Gusts: NA
Location:  7.74°S, 37.99°W
Report Text: SBJU 252200Z 05003KT 9999 SCT022 33/14 Q1013
Loading
Personal Weather Stations






























Interactive Weather Map
Tropical Storm Tracking
New forecast layout! Learn more

10-Day Weather Forecast

Advertisements
Track Severe Weather on mobile